sensor_id;sensor_type;location;lat;lon;timestamp;P1;durP1;ratioP1;P2;durP2;ratioP2
57315;SDS011;43156;50.942;18.144;2023-04-24T00:15:11;4.80;;;4.40;;
57315;SDS011;43156;50.942;18.144;2023-04-24T00:17:44;5.10;;;4.60;;
57315;SDS011;43156;50.942;18.144;2023-04-24T00:20:17;4.80;;;4.00;;
57315;SDS011;43156;50.942;18.144;2023-04-24T00:22:50;6.20;;;4.50;;
57315;SDS011;43156;50.942;18.144;2023-04-24T00:25:31;5.60;;;4.50;;
57315;SDS011;43156;50.942;18.144;2023-04-24T00:28:03;5.60;;;4.70;;
57315;SDS011;43156;50.942;18.144;2023-04-24T00:30:34;5.10;;;4.30;;
57315;SDS011;43156;50.942;18.144;2023-04-24T00:33:00;5.20;;;4.40;;
57315;SDS011;43156;50.942;18.144;2023-04-24T00:35:33;5.10;;;4.10;;
57315;SDS011;43156;50.942;18.144;2023-04-24T00:38:00;4.70;;;3.90;;
57315;SDS011;43156;50.942;18.144;2023-04-24T00:40:33;6.40;;;4.10;;
57315;SDS011;43156;50.942;18.144;2023-04-24T00:43:11;6.20;;;4.40;;
57315;SDS011;43156;50.942;18.144;2023-04-24T00:48:11;4.80;;;4.20;;
57315;SDS011;43156;50.942;18.144;2023-04-24T00:50:46;5.20;;;4.10;;
57315;SDS011;43156;50.942;18.144;2023-04-24T00:53:18;5.50;;;4.20;;
57315;SDS011;43156;50.942;18.144;2023-04-24T00:55:50;5.10;;;4.00;;
57315;SDS011;43156;50.942;18.144;2023-04-24T01:00:54;5.20;;;4.20;;
57315;SDS011;43156;50.942;18.144;2023-04-24T01:03:34;5.70;;;4.00;;
57315;SDS011;43156;50.942;18.144;2023-04-24T01:06:07;5.10;;;3.90;;
57315;SDS011;43156;50.942;18.144;2023-04-24T01:08:35;6.00;;;4.10;;
57315;SDS011;43156;50.942;18.144;2023-04-24T01:11:05;5.80;;;3.70;;
57315;SDS011;43156;50.942;18.144;2023-04-24T01:13:35;4.40;;;3.90;;
57315;SDS011;43156;50.942;18.144;2023-04-24T01:16:07;5.20;;;3.90;;
57315;SDS011;43156;50.942;18.144;2023-04-24T01:18:40;5.60;;;3.80;;
57315;SDS011;43156;50.942;18.144;2023-04-24T01:21:06;4.30;;;3.60;;
57315;SDS011;43156;50.942;18.144;2023-04-24T01:23:35;3.80;;;3.40;;
57315;SDS011;43156;50.942;18.144;2023-04-24T01:26:11;5.00;;;4.10;;
57315;SDS011;43156;50.942;18.144;2023-04-24T01:28:45;5.20;;;4.20;;
57315;SDS011;43156;50.942;18.144;2023-04-24T01:31:15;6.30;;;4.40;;
57315;SDS011;43156;50.942;18.144;2023-04-24T01:33:45;5.40;;;4.20;;
57315;SDS011;43156;50.942;18.144;2023-04-24T01:36:16;8.20;;;5.30;;
57315;SDS011;43156;50.942;18.144;2023-04-24T01:38:45;6.50;;;4.90;;
57315;SDS011;43156;50.942;18.144;2023-04-24T01:41:18;7.50;;;4.10;;
57315;SDS011;43156;50.942;18.144;2023-04-24T01:46:16;7.40;;;5.00;;
57315;SDS011;43156;50.942;18.144;2023-04-24T01:48:45;6.30;;;5.20;;
57315;SDS011;43156;50.942;18.144;2023-04-24T01:51:17;6.10;;;4.80;;
57315;SDS011;43156;50.942;18.144;2023-04-24T01:53:46;7.10;;;4.90;;
57315;SDS011;43156;50.942;18.144;2023-04-24T01:56:19;9.10;;;5.40;;
57315;SDS011;43156;50.942;18.144;2023-04-24T01:58:47;7.40;;;5.40;;
57315;SDS011;43156;50.942;18.144;2023-04-24T02:01:20;6.30;;;4.60;;
57315;SDS011;43156;50.942;18.144;2023-04-24T02:03:51;6.30;;;4.90;;
57315;SDS011;43156;50.942;18.144;2023-04-24T02:06:23;5.90;;;5.30;;
57315;SDS011;43156;50.942;18.144;2023-04-24T02:08:51;8.40;;;5.00;;
57315;SDS011;43156;50.942;18.144;2023-04-24T02:11:24;5.80;;;5.20;;
57315;SDS011;43156;50.942;18.144;2023-04-24T02:13:53;7.40;;;5.70;;
57315;SDS011;43156;50.942;18.144;2023-04-24T02:16:23;7.10;;;5.70;;
57315;SDS011;43156;50.942;18.144;2023-04-24T02:18:53;7.10;;;5.50;;
57315;SDS011;43156;50.942;18.144;2023-04-24T02:21:24;7.30;;;6.00;;
57315;SDS011;43156;50.942;18.144;2023-04-24T02:23:54;6.30;;;5.40;;
57315;SDS011;43156;50.942;18.144;2023-04-24T02:26:21;7.10;;;6.00;;
57315;SDS011;43156;50.942;18.144;2023-04-24T02:28:48;9.20;;;5.80;;
57315;SDS011;43156;50.942;18.144;2023-04-24T02:31:18;7.70;;;6.20;;
57315;SDS011;43156;50.942;18.144;2023-04-24T02:33:49;8.70;;;6.70;;
57315;SDS011;43156;50.942;18.144;2023-04-24T02:38:46;8.10;;;6.70;;
57315;SDS011;43156;50.942;18.144;2023-04-24T02:41:18;9.30;;;7.30;;
57315;SDS011;43156;50.942;18.144;2023-04-24T02:43:48;8.70;;;6.60;;
57315;SDS011;43156;50.942;18.144;2023-04-24T02:46:15;10.40;;;6.70;;
57315;SDS011;43156;50.942;18.144;2023-04-24T02:48:48;8.60;;;6.60;;
57315;SDS011;43156;50.942;18.144;2023-04-24T02:53:53;9.00;;;7.10;;
57315;SDS011;43156;50.942;18.144;2023-04-24T02:56:25;9.10;;;6.80;;
57315;SDS011;43156;50.942;18.144;2023-04-24T02:58:56;9.30;;;7.60;;
57315;SDS011;43156;50.942;18.144;2023-04-24T03:01:31;9.00;;;7.40;;
57315;SDS011;43156;50.942;18.144;2023-04-24T03:03:57;8.40;;;7.50;;
57315;SDS011;43156;50.942;18.144;2023-04-24T03:06:30;8.70;;;6.70;;
57315;SDS011;43156;50.942;18.144;2023-04-24T03:08:58;9.00;;;7.20;;
57315;SDS011;43156;50.942;18.144;2023-04-24T03:11:25;8.60;;;7.30;;
57315;SDS011;43156;50.942;18.144;2023-04-24T03:13:56;9.00;;;7.60;;
57315;SDS011;43156;50.942;18.144;2023-04-24T03:16:27;8.60;;;7.10;;
57315;SDS011;43156;50.942;18.144;2023-04-24T03:18:58;9.00;;;7.30;;
57315;SDS011;43156;50.942;18.144;2023-04-24T03:21:36;10.40;;;7.40;;
57315;SDS011;43156;50.942;18.144;2023-04-24T03:24:08;10.20;;;7.30;;
57315;SDS011;43156;50.942;18.144;2023-04-24T03:26:40;8.40;;;6.90;;
57315;SDS011;43156;50.942;18.144;2023-04-24T03:29:06;11.30;;;7.40;;
57315;SDS011;43156;50.942;18.144;2023-04-24T03:31:34;9.50;;;6.50;;
57315;SDS011;43156;50.942;18.144;2023-04-24T03:34:02;9.70;;;6.70;;
57315;SDS011;43156;50.942;18.144;2023-04-24T03:36:34;9.10;;;6.20;;
57315;SDS011;43156;50.942;18.144;2023-04-24T03:39:00;9.10;;;6.00;;
57315;SDS011;43156;50.942;18.144;2023-04-24T03:41:33;11.10;;;6.30;;
57315;SDS011;43156;50.942;18.144;2023-04-24T03:44:04;8.00;;;6.10;;
57315;SDS011;43156;50.942;18.144;2023-04-24T03:46:31;8.60;;;6.20;;
57315;SDS011;43156;50.942;18.144;2023-04-24T03:49:02;8.20;;;6.10;;
57315;SDS011;43156;50.942;18.144;2023-04-24T03:51:33;8.20;;;6.30;;
57315;SDS011;43156;50.942;18.144;2023-04-24T03:54:03;7.80;;;5.60;;
57315;SDS011;43156;50.942;18.144;2023-04-24T03:56:35;8.90;;;6.00;;
57315;SDS011;43156;50.942;18.144;2023-04-24T03:59:01;7.90;;;6.30;;
57315;SDS011;43156;50.942;18.144;2023-04-24T04:01:28;7.60;;;6.40;;
57315;SDS011;43156;50.942;18.144;2023-04-24T04:03:58;8.80;;;6.70;;
57315;SDS011;43156;50.942;18.144;2023-04-24T04:06:25;9.20;;;6.90;;
57315;SDS011;43156;50.942;18.144;2023-04-24T04:08:58;7.90;;;6.40;;
57315;SDS011;43156;50.942;18.144;2023-04-24T04:11:24;8.20;;;6.70;;
57315;SDS011;43156;50.942;18.144;2023-04-24T04:13:56;7.50;;;6.60;;
57315;SDS011;43156;50.942;18.144;2023-04-24T04:16:26;7.80;;;6.40;;
57315;SDS011;43156;50.942;18.144;2023-04-24T04:18:57;9.60;;;6.70;;
57315;SDS011;43156;50.942;18.144;2023-04-24T04:21:36;8.90;;;6.80;;
57315;SDS011;43156;50.942;18.144;2023-04-24T04:24:11;9.90;;;6.90;;
57315;SDS011;43156;50.942;18.144;2023-04-24T04:26:42;9.10;;;6.90;;
57315;SDS011;43156;50.942;18.144;2023-04-24T04:31:39;8.20;;;6.80;;
57315;SDS011;43156;50.942;18.144;2023-04-24T04:34:14;7.30;;;6.40;;
57315;SDS011;43156;50.942;18.144;2023-04-24T04:36:51;8.50;;;6.10;;
57315;SDS011;43156;50.942;18.144;2023-04-24T04:39:17;8.60;;;5.90;;
57315;SDS011;43156;50.942;18.144;2023-04-24T04:41:52;7.60;;;6.90;;
57315;SDS011;43156;50.942;18.144;2023-04-24T04:44:19;7.60;;;6.50;;
57315;SDS011;43156;50.942;18.144;2023-04-24T04:46:50;8.60;;;6.80;;
57315;SDS011;43156;50.942;18.144;2023-04-24T04:49:21;7.80;;;6.80;;
57315;SDS011;43156;50.942;18.144;2023-04-24T04:51:50;8.60;;;7.10;;
57315;SDS011;43156;50.942;18.144;2023-04-24T04:54:22;9.50;;;7.30;;
57315;SDS011;43156;50.942;18.144;2023-04-24T04:56:51;8.30;;;7.20;;
57315;SDS011;43156;50.942;18.144;2023-04-24T04:59:20;8.20;;;7.10;;
57315;SDS011;43156;50.942;18.144;2023-04-24T05:04:17;10.70;;;7.80;;
57315;SDS011;43156;50.942;18.144;2023-04-24T05:06:47;9.90;;;8.30;;
57315;SDS011;43156;50.942;18.144;2023-04-24T05:09:18;7.90;;;7.10;;
57315;SDS011;43156;50.942;18.144;2023-04-24T05:11:47;9.60;;;7.70;;
57315;SDS011;43156;50.942;18.144;2023-04-24T05:14:14;10.70;;;8.00;;
57315;SDS011;43156;50.942;18.144;2023-04-24T05:16:46;8.90;;;7.70;;
57315;SDS011;43156;50.942;18.144;2023-04-24T05:19:16;7.20;;;6.30;;
57315;SDS011;43156;50.942;18.144;2023-04-24T05:21:50;10.10;;;7.20;;
57315;SDS011;43156;50.942;18.144;2023-04-24T05:24:23;8.80;;;7.20;;
57315;SDS011;43156;50.942;18.144;2023-04-24T05:26:50;8.90;;;7.20;;
57315;SDS011;43156;50.942;18.144;2023-04-24T05:29:23;8.90;;;6.70;;
57315;SDS011;43156;50.942;18.144;2023-04-24T05:34:25;9.90;;;7.80;;
57315;SDS011;43156;50.942;18.144;2023-04-24T05:36:57;10.60;;;7.80;;
57315;SDS011;43156;50.942;18.144;2023-04-24T05:39:27;10.00;;;7.20;;
57315;SDS011;43156;50.942;18.144;2023-04-24T05:41:59;10.60;;;7.20;;
57315;SDS011;43156;50.942;18.144;2023-04-24T05:44:34;8.30;;;7.40;;
57315;SDS011;43156;50.942;18.144;2023-04-24T05:47:06;8.90;;;7.90;;
57315;SDS011;43156;50.942;18.144;2023-04-24T05:49:36;10.20;;;8.00;;
57315;SDS011;43156;50.942;18.144;2023-04-24T05:52:03;10.20;;;8.30;;
57315;SDS011;43156;50.942;18.144;2023-04-24T06:46:30;9.40;;;6.10;;
57315;SDS011;43156;50.942;18.144;2023-04-24T06:56:39;7.00;;;6.30;;
57315;SDS011;43156;50.942;18.144;2023-04-24T07:06:47;4.20;;;3.80;;
57315;SDS011;43156;50.942;18.144;2023-04-24T07:16:54;5.60;;;5.00;;
57315;SDS011;43156;50.942;18.144;2023-04-24T07:26:47;4.60;;;4.20;;
57315;SDS011;43156;50.942;18.144;2023-04-24T07:36:40;4.20;;;3.20;;
57315;SDS011;43156;50.942;18.144;2023-04-24T07:46:39;3.80;;;3.60;;
57315;SDS011;43156;50.942;18.144;2023-04-24T07:56:44;4.40;;;2.20;;
57315;SDS011;43156;50.942;18.144;2023-04-24T08:06:40;4.50;;;4.10;;
57315;SDS011;43156;50.942;18.144;2023-04-24T08:16:42;9.30;;;3.70;;
57315;SDS011;43156;50.942;18.144;2023-04-24T08:33:58;2.90;;;2.70;;
57315;SDS011;43156;50.942;18.144;2023-04-24T08:44:01;3.90;;;3.00;;
57315;SDS011;43156;50.942;18.144;2023-04-24T08:53:59;6.50;;;3.40;;
57315;SDS011;43156;50.942;18.144;2023-04-24T09:03:58;3.60;;;3.20;;
57315;SDS011;43156;50.942;18.144;2023-04-24T09:13:54;2.40;;;2.00;;
57315;SDS011;43156;50.942;18.144;2023-04-24T09:23:58;5.20;;;2.90;;
57315;SDS011;43156;50.942;18.144;2023-04-24T09:34:09;3.70;;;3.40;;
57315;SDS011;43156;50.942;18.144;2023-04-24T09:39:10;3.80;;;3.00;;
57315;SDS011;43156;50.942;18.144;2023-04-24T09:49:16;3.10;;;2.80;;
57315;SDS011;43156;50.942;18.144;2023-04-24T09:59:10;4.40;;;3.10;;
57315;SDS011;43156;50.942;18.144;2023-04-24T10:09:22;1.80;;;1.70;;
57315;SDS011;43156;50.942;18.144;2023-04-24T10:19:25;2.60;;;2.50;;
57315;SDS011;43156;50.942;18.144;2023-04-24T10:29:36;2.40;;;2.20;;
57315;SDS011;43156;50.942;18.144;2023-04-24T10:39:46;2.60;;;2.40;;
57315;SDS011;43156;50.942;18.144;2023-04-24T10:49:42;3.30;;;3.10;;
57315;SDS011;43156;50.942;18.144;2023-04-24T10:59:46;3.30;;;3.10;;
57315;SDS011;43156;50.942;18.144;2023-04-24T11:09:41;5.20;;;2.90;;
57315;SDS011;43156;50.942;18.144;2023-04-24T11:20:07;2.50;;;2.30;;
57315;SDS011;43156;50.942;18.144;2023-04-24T12:16:05;2.70;;;2.50;;
57315;SDS011;43156;50.942;18.144;2023-04-24T12:26:12;5.30;;;4.80;;
57315;SDS011;43156;50.942;18.144;2023-04-24T12:36:00;3.20;;;2.90;;
57315;SDS011;43156;50.942;18.144;2023-04-24T12:45:56;2.30;;;2.20;;
57315;SDS011;43156;50.942;18.144;2023-04-24T12:55:44;4.40;;;3.00;;
57315;SDS011;43156;50.942;18.144;2023-04-24T13:05:38;2.90;;;2.60;;
57315;SDS011;43156;50.942;18.144;2023-04-24T13:15:26;8.90;;;3.30;;
57315;SDS011;43156;50.942;18.144;2023-04-24T13:25:12;3.90;;;3.50;;
57315;SDS011;43156;50.942;18.144;2023-04-24T13:35:04;3.20;;;3.00;;
57315;SDS011;43156;50.942;18.144;2023-04-24T13:44:58;4.10;;;2.90;;
57315;SDS011;43156;50.942;18.144;2023-04-24T13:52:19;4.60;;;4.20;;
57315;SDS011;43156;50.942;18.144;2023-04-24T14:02:05;3.40;;;2.60;;
57315;SDS011;43156;50.942;18.144;2023-04-24T14:11:53;3.40;;;3.10;;
57315;SDS011;43156;50.942;18.144;2023-04-24T14:21:43;9.60;;;4.90;;
57315;SDS011;43156;50.942;18.144;2023-04-24T14:31:27;4.70;;;4.40;;
57315;SDS011;43156;50.942;18.144;2023-04-24T14:41:15;16.30;;;5.10;;
57315;SDS011;43156;50.942;18.144;2023-04-24T14:51:04;4.40;;;4.10;;
57315;SDS011;43156;50.942;18.144;2023-04-24T15:00:48;2.50;;;2.40;;
57315;SDS011;43156;50.942;18.144;2023-04-24T15:10:42;6.30;;;5.70;;
57315;SDS011;43156;50.942;18.144;2023-04-24T15:20:31;5.50;;;4.70;;
57315;SDS011;43156;50.942;18.144;2023-04-24T15:30:23;4.30;;;4.00;;
57315;SDS011;43156;50.942;18.144;2023-04-24T15:40:08;5.70;;;5.20;;
57315;SDS011;43156;50.942;18.144;2023-04-24T15:49:57;7.70;;;5.70;;
57315;SDS011;43156;50.942;18.144;2023-04-24T15:59:46;6.90;;;6.20;;
57315;SDS011;43156;50.942;18.144;2023-04-24T16:09:37;7.00;;;6.30;;
57315;SDS011;43156;50.942;18.144;2023-04-24T16:19:28;9.50;;;8.50;;
57315;SDS011;43156;50.942;18.144;2023-04-24T16:29:17;3.70;;;3.40;;
57315;SDS011;43156;50.942;18.144;2023-04-24T16:39:06;6.90;;;6.20;;
57315;SDS011;43156;50.942;18.144;2023-04-24T16:48:52;8.60;;;7.90;;
57315;SDS011;43156;50.942;18.144;2023-04-24T16:58:41;6.10;;;5.50;;
57315;SDS011;43156;50.942;18.144;2023-04-24T17:08:32;8.10;;;7.30;;
57315;SDS011;43156;50.942;18.144;2023-04-24T17:18:17;9.20;;;8.30;;
57315;SDS011;43156;50.942;18.144;2023-04-24T18:09:54;3.50;;;3.20;;
57315;SDS011;43156;50.942;18.144;2023-04-24T18:12:22;4.10;;;3.70;;
57315;SDS011;43156;50.942;18.144;2023-04-24T18:14:58;5.60;;;3.50;;
57315;SDS011;43156;50.942;18.144;2023-04-24T18:17:27;4.10;;;3.20;;
57315;SDS011;43156;50.942;18.144;2023-04-24T18:20:00;3.20;;;2.70;;
57315;SDS011;43156;50.942;18.144;2023-04-24T18:22:32;4.30;;;3.90;;
57315;SDS011;43156;50.942;18.144;2023-04-24T18:25:03;6.20;;;4.20;;
57315;SDS011;43156;50.942;18.144;2023-04-24T18:27:35;4.30;;;3.70;;
57315;SDS011;43156;50.942;18.144;2023-04-24T18:30:09;5.40;;;3.80;;
57315;SDS011;43156;50.942;18.144;2023-04-24T18:32:39;3.20;;;2.70;;
57315;SDS011;43156;50.942;18.144;2023-04-24T18:35:08;4.30;;;3.00;;
57315;SDS011;43156;50.942;18.144;2023-04-24T18:37:36;3.70;;;2.50;;
57315;SDS011;43156;50.942;18.144;2023-04-24T18:40:12;3.20;;;2.30;;
57315;SDS011;43156;50.942;18.144;2023-04-24T18:42:39;2.70;;;2.00;;
57315;SDS011;43156;50.942;18.144;2023-04-24T18:45:08;2.80;;;2.10;;
57315;SDS011;43156;50.942;18.144;2023-04-24T18:47:38;2.20;;;1.70;;
57315;SDS011;43156;50.942;18.144;2023-04-24T18:50:05;4.30;;;1.90;;
57315;SDS011;43156;50.942;18.144;2023-04-24T18:52:39;2.40;;;1.50;;
57315;SDS011;43156;50.942;18.144;2023-04-24T18:55:12;2.60;;;1.50;;
57315;SDS011;43156;50.942;18.144;2023-04-24T18:57:40;2.70;;;1.50;;
57315;SDS011;43156;50.942;18.144;2023-04-24T19:00:16;2.50;;;1.10;;
57315;SDS011;43156;50.942;18.144;2023-04-24T19:02:46;1.90;;;1.20;;
57315;SDS011;43156;50.942;18.144;2023-04-24T19:05:28;2.10;;;1.20;;
57315;SDS011;43156;50.942;18.144;2023-04-24T19:08:02;1.90;;;1.00;;
57315;SDS011;43156;50.942;18.144;2023-04-24T19:10:35;54.80;;;14.50;;
57315;SDS011;43156;50.942;18.144;2023-04-24T19:13:07;2.60;;;1.60;;
57315;SDS011;43156;50.942;18.144;2023-04-24T19:15:35;6.70;;;3.30;;
57315;SDS011;43156;50.942;18.144;2023-04-24T19:18:02;1.90;;;1.10;;
57315;SDS011;43156;50.942;18.144;2023-04-24T19:20:35;1.20;;;1.00;;
57315;SDS011;43156;50.942;18.144;2023-04-24T19:23:07;4.20;;;1.40;;
57315;SDS011;43156;50.942;18.144;2023-04-24T19:25:35;1.30;;;0.80;;
57315;SDS011;43156;50.942;18.144;2023-04-24T19:28:10;1.50;;;0.90;;
57315;SDS011;43156;50.942;18.144;2023-04-24T19:30:42;1.30;;;0.90;;
57315;SDS011;43156;50.942;18.144;2023-04-24T19:33:14;2.10;;;0.90;;
57315;SDS011;43156;50.942;18.144;2023-04-24T19:35:43;2.10;;;0.90;;
57315;SDS011;43156;50.942;18.144;2023-04-24T19:38:15;1.40;;;0.80;;
57315;SDS011;43156;50.942;18.144;2023-04-24T19:40:46;1.10;;;0.80;;
57315;SDS011;43156;50.942;18.144;2023-04-24T19:43:20;1.40;;;0.90;;
57315;SDS011;43156;50.942;18.144;2023-04-24T19:45:52;2.00;;;0.90;;
57315;SDS011;43156;50.942;18.144;2023-04-24T19:48:22;1.30;;;0.80;;
57315;SDS011;43156;50.942;18.144;2023-04-24T19:50:57;1.30;;;0.80;;
57315;SDS011;43156;50.942;18.144;2023-04-24T19:55:53;1.90;;;1.00;;
57315;SDS011;43156;50.942;18.144;2023-04-24T20:00:50;1.40;;;1.10;;
57315;SDS011;43156;50.942;18.144;2023-04-24T20:03:22;2.10;;;0.90;;
57315;SDS011;43156;50.942;18.144;2023-04-24T20:05:55;2.30;;;1.00;;
57315;SDS011;43156;50.942;18.144;2023-04-24T20:08:24;1.40;;;1.00;;
57315;SDS011;43156;50.942;18.144;2023-04-24T20:10:52;1.30;;;1.00;;
57315;SDS011;43156;50.942;18.144;2023-04-24T20:13:25;1.90;;;1.00;;
57315;SDS011;43156;50.942;18.144;2023-04-24T20:15:58;1.90;;;1.00;;
57315;SDS011;43156;50.942;18.144;2023-04-24T20:18:45;2.80;;;1.10;;
57315;SDS011;43156;50.942;18.144;2023-04-24T20:21:18;1.70;;;1.10;;
57315;SDS011;43156;50.942;18.144;2023-04-24T20:23:50;1.90;;;1.20;;
57315;SDS011;43156;50.942;18.144;2023-04-24T20:26:22;2.50;;;1.20;;
57315;SDS011;43156;50.942;18.144;2023-04-24T20:28:50;1.60;;;1.20;;
57315;SDS011;43156;50.942;18.144;2023-04-24T20:31:21;1.90;;;1.10;;
57315;SDS011;43156;50.942;18.144;2023-04-24T20:33:54;1.90;;;1.20;;
57315;SDS011;43156;50.942;18.144;2023-04-24T20:36:33;2.00;;;1.50;;
57315;SDS011;43156;50.942;18.144;2023-04-24T20:39:05;2.30;;;1.80;;
57315;SDS011;43156;50.942;18.144;2023-04-24T20:41:38;2.50;;;1.70;;
57315;SDS011;43156;50.942;18.144;2023-04-24T20:44:11;3.30;;;2.60;;
57315;SDS011;43156;50.942;18.144;2023-04-24T20:46:40;3.90;;;3.50;;
57315;SDS011;43156;50.942;18.144;2023-04-24T20:49:15;3.30;;;2.40;;
57315;SDS011;43156;50.942;18.144;2023-04-24T20:51:48;3.80;;;2.20;;
57315;SDS011;43156;50.942;18.144;2023-04-24T20:54:17;2.70;;;2.10;;
57315;SDS011;43156;50.942;18.144;2023-04-24T20:56:53;2.40;;;2.00;;
57315;SDS011;43156;50.942;18.144;2023-04-24T20:59:24;3.70;;;2.20;;
57315;SDS011;43156;50.942;18.144;2023-04-24T21:02:01;3.40;;;2.40;;
57315;SDS011;43156;50.942;18.144;2023-04-24T21:04:34;3.80;;;2.30;;
57315;SDS011;43156;50.942;18.144;2023-04-24T21:07:03;2.90;;;2.40;;
57315;SDS011;43156;50.942;18.144;2023-04-24T21:09:40;2.70;;;2.20;;
57315;SDS011;43156;50.942;18.144;2023-04-24T21:12:16;4.40;;;2.50;;
57315;SDS011;43156;50.942;18.144;2023-04-24T21:14:50;3.00;;;2.30;;
57315;SDS011;43156;50.942;18.144;2023-04-24T21:17:22;3.40;;;2.60;;
57315;SDS011;43156;50.942;18.144;2023-04-24T21:19:58;3.00;;;2.70;;
57315;SDS011;43156;50.942;18.144;2023-04-24T21:22:30;2.90;;;2.60;;
57315;SDS011;43156;50.942;18.144;2023-04-24T21:25:01;3.70;;;2.90;;
57315;SDS011;43156;50.942;18.144;2023-04-24T21:27:35;4.00;;;3.30;;
57315;SDS011;43156;50.942;18.144;2023-04-24T21:30:08;7.70;;;5.00;;
57315;SDS011;43156;50.942;18.144;2023-04-24T21:32:47;6.60;;;4.30;;
57315;SDS011;43156;50.942;18.144;2023-04-24T21:35:17;4.60;;;3.30;;
57315;SDS011;43156;50.942;18.144;2023-04-24T21:37:50;3.40;;;2.80;;
57315;SDS011;43156;50.942;18.144;2023-04-24T21:40:22;3.30;;;3.00;;
57315;SDS011;43156;50.942;18.144;2023-04-24T21:42:54;3.20;;;2.90;;
57315;SDS011;43156;50.942;18.144;2023-04-24T21:45:24;3.40;;;3.10;;
57315;SDS011;43156;50.942;18.144;2023-04-24T21:47:50;3.50;;;3.10;;
57315;SDS011;43156;50.942;18.144;2023-04-24T21:50:19;3.80;;;3.40;;
57315;SDS011;43156;50.942;18.144;2023-04-24T21:52:50;4.20;;;3.70;;
57315;SDS011;43156;50.942;18.144;2023-04-24T21:55:22;4.00;;;3.70;;
57315;SDS011;43156;50.942;18.144;2023-04-24T21:57:52;4.40;;;3.80;;
57315;SDS011;43156;50.942;18.144;2023-04-24T22:00:26;4.10;;;3.70;;
57315;SDS011;43156;50.942;18.144;2023-04-24T22:02:54;4.80;;;4.10;;
57315;SDS011;43156;50.942;18.144;2023-04-24T22:05:22;4.00;;;3.40;;
57315;SDS011;43156;50.942;18.144;2023-04-24T22:07:57;5.00;;;4.00;;
57315;SDS011;43156;50.942;18.144;2023-04-24T22:10:27;4.10;;;3.50;;
57315;SDS011;43156;50.942;18.144;2023-04-24T22:12:55;4.30;;;3.70;;
57315;SDS011;43156;50.942;18.144;2023-04-24T22:15:26;4.60;;;3.60;;
57315;SDS011;43156;50.942;18.144;2023-04-24T22:17:53;4.50;;;3.70;;
57315;SDS011;43156;50.942;18.144;2023-04-24T22:20:22;4.30;;;3.50;;
57315;SDS011;43156;50.942;18.144;2023-04-24T22:22:50;4.30;;;3.80;;
57315;SDS011;43156;50.942;18.144;2023-04-24T22:25:18;4.40;;;3.70;;
57315;SDS011;43156;50.942;18.144;2023-04-24T22:27:49;4.80;;;3.70;;
57315;SDS011;43156;50.942;18.144;2023-04-24T22:30:18;3.70;;;3.40;;
57315;SDS011;43156;50.942;18.144;2023-04-24T22:32:52;4.10;;;3.70;;
57315;SDS011;43156;50.942;18.144;2023-04-24T22:35:29;5.10;;;3.80;;
57315;SDS011;43156;50.942;18.144;2023-04-24T22:38:02;4.30;;;3.90;;
57315;SDS011;43156;50.942;18.144;2023-04-24T22:40:29;4.30;;;3.80;;
57315;SDS011;43156;50.942;18.144;2023-04-24T22:43:00;4.60;;;4.00;;
57315;SDS011;43156;50.942;18.144;2023-04-24T22:45:32;4.80;;;4.20;;
57315;SDS011;43156;50.942;18.144;2023-04-24T22:48:03;5.00;;;4.40;;
57315;SDS011;43156;50.942;18.144;2023-04-24T22:50:33;5.30;;;4.80;;
57315;SDS011;43156;50.942;18.144;2023-04-24T22:53:06;5.60;;;5.10;;
57315;SDS011;43156;50.942;18.144;2023-04-24T22:55:37;6.20;;;5.60;;
57315;SDS011;43156;50.942;18.144;2023-04-24T22:58:10;7.60;;;6.60;;
57315;SDS011;43156;50.942;18.144;2023-04-24T23:00:38;7.60;;;6.50;;
57315;SDS011;43156;50.942;18.144;2023-04-24T23:03:08;7.60;;;6.30;;
57315;SDS011;43156;50.942;18.144;2023-04-24T23:05:34;6.30;;;5.70;;
57315;SDS011;43156;50.942;18.144;2023-04-24T23:08:04;6.60;;;6.00;;
57315;SDS011;43156;50.942;18.144;2023-04-24T23:10:33;7.00;;;6.00;;
57315;SDS011;43156;50.942;18.144;2023-04-24T23:13:05;8.30;;;5.60;;
57315;SDS011;43156;50.942;18.144;2023-04-24T23:15:34;6.40;;;5.30;;
57315;SDS011;43156;50.942;18.144;2023-04-24T23:18:02;5.90;;;5.10;;
57315;SDS011;43156;50.942;18.144;2023-04-24T23:20:38;5.30;;;4.70;;
57315;SDS011;43156;50.942;18.144;2023-04-24T23:23:10;5.50;;;4.30;;
